Terminal Aerodrome Forecast
Issued by NWS Anchorage, AK

Home | Current Version | Previous Version | Text Only | Print | Product List | Glossary On
Versions: 1 2 3 4 5 6 7 8 9 10 11 12 13 14 15 16
000
FTAK31 PANC 280523
TAFANC
TAF
PANC 280523Z 2806/2912 19005KT P6SM FEW020 SCT060 BKN200
     FM281900 30005KT P6SM SCT200
     FM290400 23006KT P6SM SCT080 BKN200=

USA.gov is the U.S. government's official web portal to all federal, state and local government web resources and services.